< < Back
Terminal Aerodrome Forecast


Current Version              Previous Versions:   1  2  3  4  5  6  7  8  9  

Terminal Aerodrome Forecast

516
FTUS42 KMLB 281739
TAFDAB
TAF
KDAB 281739Z 2818/2918 08007KT P6SM VCSH SCT012 BKN090 OVC110
      TEMPO 2818/2820 3SM SHRA BR BKN015 OVC025
     FM282000 09012KT P6SM VCSH BKN020 BKN050
     FM290000 VRB04KT P6SM VCSH OVC015
      TEMPO 2900/2904 3SM SHRA BR OVC008
     FM290600 VRB03KT P6SM VCSH BKN025=

Latest METAR

979
SAUS80 KWBC 281900 RRA
MTRDAB
METAR KDAB 281853Z 09007KT 5SM -RA BR SCT016 BKN024 OVC060 23/22 A2979
RMK AO2 RAB24 SLP086 P0002 T02330217


USA.gov is the U.S. government's official web portal to all federal, state and local government web resources and services.